sensor_id;sensor_type;location;lat;lon;timestamp;pressure;altitude;pressure_sealevel;temperature;humidity
54270;BME280;40181;51.560;13.000;2023-05-08T00:01:02;101622.53;;;7.86;78.70
54270;BME280;40181;51.560;13.000;2023-05-08T00:03:31;101616.25;;;7.82;79.38
54270;BME280;40181;51.560;13.000;2023-05-08T00:06:02;101608.56;;;7.85;79.45
54270;BME280;40181;51.560;13.000;2023-05-08T00:08:32;101609.50;;;8.09;78.22
54270;BME280;40181;51.560;13.000;2023-05-08T00:11:04;101595.41;;;8.05;78.25
54270;BME280;40181;51.560;13.000;2023-05-08T00:13:33;101600.94;;;7.92;78.78
54270;BME280;40181;51.560;13.000;2023-05-08T00:16:02;101601.59;;;7.86;78.87
54270;BME280;40181;51.560;13.000;2023-05-08T00:18:33;101601.56;;;7.84;78.68
54270;BME280;40181;51.560;13.000;2023-05-08T00:21:03;101592.16;;;7.89;78.99
54270;BME280;40181;51.560;13.000;2023-05-08T00:23:32;101596.88;;;7.77;79.14
54270;BME280;40181;51.560;13.000;2023-05-08T00:26:03;101595.88;;;7.73;79.32
54270;BME280;40181;51.560;13.000;2023-05-08T00:28:33;101594.00;;;7.71;79.48
54270;BME280;40181;51.560;13.000;2023-05-08T00:31:02;101590.09;;;7.82;79.17
54270;BME280;40181;51.560;13.000;2023-05-08T00:33:31;101597.72;;;7.76;79.44
54270;BME280;40181;51.560;13.000;2023-05-08T00:36:00;101595.31;;;7.81;79.30
54270;BME280;40181;51.560;13.000;2023-05-08T00:38:31;101585.13;;;7.88;78.72
54270;BME280;40181;51.560;13.000;2023-05-08T00:41:03;101599.44;;;7.75;79.36
54270;BME280;40181;51.560;13.000;2023-05-08T00:43:32;101582.06;;;7.78;79.16
54270;BME280;40181;51.560;13.000;2023-05-08T00:46:04;101586.22;;;7.72;79.32
54270;BME280;40181;51.560;13.000;2023-05-08T00:48:34;101581.44;;;7.62;80.16
54270;BME280;40181;51.560;13.000;2023-05-08T00:51:05;101592.94;;;7.66;80.07
54270;BME280;40181;51.560;13.000;2023-05-08T00:53:38;101589.09;;;7.57;80.27
54270;BME280;40181;51.560;13.000;2023-05-08T00:56:12;101595.41;;;7.63;79.96
54270;BME280;40181;51.560;13.000;2023-05-08T00:58:42;101598.66;;;7.57;80.43
54270;BME280;40181;51.560;13.000;2023-05-08T01:01:12;101602.47;;;7.44;80.77
54270;BME280;40181;51.560;13.000;2023-05-08T01:03:42;101613.59;;;7.59;80.09
54270;BME280;40181;51.560;13.000;2023-05-08T01:06:11;101614.16;;;7.52;80.51
54270;BME280;40181;51.560;13.000;2023-05-08T01:08:42;101601.66;;;7.66;79.97
54270;BME280;40181;51.560;13.000;2023-05-08T01:11:19;101608.34;;;7.59;80.88
54270;BME280;40181;51.560;13.000;2023-05-08T01:13:58;101608.00;;;7.52;80.89
54270;BME280;40181;51.560;13.000;2023-05-08T01:16:40;101616.28;;;7.41;81.02
54270;BME280;40181;51.560;13.000;2023-05-08T01:19:30;101615.13;;;7.34;80.73
54270;BME280;40181;51.560;13.000;2023-05-08T01:22:15;101597.13;;;7.41;80.78
54270;BME280;40181;51.560;13.000;2023-05-08T01:28:20;101599.66;;;7.39;80.83
54270;BME280;40181;51.560;13.000;2023-05-08T01:31:16;101593.16;;;7.51;80.49
54270;BME280;40181;51.560;13.000;2023-05-08T01:33:57;101601.84;;;7.50;80.41
54270;BME280;40181;51.560;13.000;2023-05-08T01:36:36;101600.28;;;7.33;81.06
54270;BME280;40181;51.560;13.000;2023-05-08T01:39:18;101606.91;;;7.25;81.78
54270;BME280;40181;51.560;13.000;2023-05-08T01:41:55;101593.94;;;7.28;81.68
54270;BME280;40181;51.560;13.000;2023-05-08T01:44:28;101594.59;;;7.03;82.64
54270;BME280;40181;51.560;13.000;2023-05-08T01:47:05;101594.13;;;7.12;82.61
54270;BME280;40181;51.560;13.000;2023-05-08T01:49:40;101610.59;;;7.11;82.35
54270;BME280;40181;51.560;13.000;2023-05-08T01:52:17;101607.31;;;7.15;82.51
54270;BME280;40181;51.560;13.000;2023-05-08T01:55:00;101612.47;;;7.13;82.18
54270;BME280;40181;51.560;13.000;2023-05-08T01:57:33;101609.25;;;6.99;82.80
54270;BME280;40181;51.560;13.000;2023-05-08T02:00:08;101608.69;;;7.06;82.18
54270;BME280;40181;51.560;13.000;2023-05-08T02:02:38;101608.50;;;7.02;82.43
54270;BME280;40181;51.560;13.000;2023-05-08T02:05:11;101611.72;;;7.16;81.84
54270;BME280;40181;51.560;13.000;2023-05-08T02:07:42;101606.84;;;7.04;81.91
54270;BME280;40181;51.560;13.000;2023-05-08T02:10:14;101607.78;;;7.06;81.95
54270;BME280;40181;51.560;13.000;2023-05-08T02:12:44;101604.50;;;7.10;82.27
54270;BME280;40181;51.560;13.000;2023-05-08T02:15:16;101606.78;;;7.02;81.85
54270;BME280;40181;51.560;13.000;2023-05-08T02:17:47;101608.63;;;7.05;82.12
54270;BME280;40181;51.560;13.000;2023-05-08T02:20:21;101613.78;;;7.03;81.73
54270;BME280;40181;51.560;13.000;2023-05-08T02:22:50;101612.81;;;6.82;82.70
54270;BME280;40181;51.560;13.000;2023-05-08T02:25:20;101620.50;;;6.98;81.99
54270;BME280;40181;51.560;13.000;2023-05-08T02:27:50;101613.75;;;6.84;82.68
54270;BME280;40181;51.560;13.000;2023-05-08T02:30:21;101622.78;;;6.90;82.32
54270;BME280;40181;51.560;13.000;2023-05-08T02:32:53;101618.03;;;6.82;82.28
54270;BME280;40181;51.560;13.000;2023-05-08T02:35:26;101622.53;;;6.66;83.33
54270;BME280;40181;51.560;13.000;2023-05-08T02:37:57;101625.88;;;6.82;83.13
54270;BME280;40181;51.560;13.000;2023-05-08T02:40:27;101612.28;;;6.71;83.11
54270;BME280;40181;51.560;13.000;2023-05-08T02:42:57;101616.50;;;6.67;83.48
54270;BME280;40181;51.560;13.000;2023-05-08T02:45:31;101611.59;;;6.55;83.95
54270;BME280;40181;51.560;13.000;2023-05-08T02:48:09;101611.75;;;6.58;83.91
54270;BME280;40181;51.560;13.000;2023-05-08T02:50:49;101619.50;;;6.57;84.19
54270;BME280;40181;51.560;13.000;2023-05-08T02:53:30;101619.63;;;6.40;85.13
54270;BME280;40181;51.560;13.000;2023-05-08T02:56:07;101622.78;;;6.34;84.88
54270;BME280;40181;51.560;13.000;2023-05-08T02:58:41;101613.84;;;6.47;84.54
54270;BME280;40181;51.560;13.000;2023-05-08T03:01:17;101620.34;;;6.19;85.48
54270;BME280;40181;51.560;13.000;2023-05-08T03:03:55;101627.06;;;6.32;85.30
54270;BME280;40181;51.560;13.000;2023-05-08T03:06:36;101618.88;;;6.25;85.35
54270;BME280;40181;51.560;13.000;2023-05-08T03:09:11;101635.63;;;6.30;85.79
54270;BME280;40181;51.560;13.000;2023-05-08T03:11:47;101635.84;;;6.34;85.06
54270;BME280;40181;51.560;13.000;2023-05-08T03:14:20;101622.13;;;6.39;84.75
54270;BME280;40181;51.560;13.000;2023-05-08T03:16:52;101632.81;;;6.43;84.68
54270;BME280;40181;51.560;13.000;2023-05-08T03:19:25;101629.00;;;6.18;85.65
54270;BME280;40181;51.560;13.000;2023-05-08T03:22:00;101635.06;;;6.35;84.77
54270;BME280;40181;51.560;13.000;2023-05-08T03:24:33;101635.94;;;6.36;84.72
54270;BME280;40181;51.560;13.000;2023-05-08T03:27:05;101627.97;;;6.33;84.82
54270;BME280;40181;51.560;13.000;2023-05-08T03:29:35;101625.34;;;6.33;84.94
54270;BME280;40181;51.560;13.000;2023-05-08T03:32:06;101635.56;;;6.10;85.35
54270;BME280;40181;51.560;13.000;2023-05-08T03:34:37;101639.38;;;6.17;85.48
54270;BME280;40181;51.560;13.000;2023-05-08T03:37:10;101637.94;;;6.05;86.06
54270;BME280;40181;51.560;13.000;2023-05-08T03:39:39;101647.13;;;6.15;85.71
54270;BME280;40181;51.560;13.000;2023-05-08T03:42:09;101642.03;;;6.18;85.22
54270;BME280;40181;51.560;13.000;2023-05-08T03:44:46;101632.81;;;6.07;85.71
54270;BME280;40181;51.560;13.000;2023-05-08T03:47:16;101644.44;;;6.14;85.64
54270;BME280;40181;51.560;13.000;2023-05-08T03:49:47;101638.94;;;5.91;85.90
54270;BME280;40181;51.560;13.000;2023-05-08T03:52:19;101637.88;;;6.22;85.26
54270;BME280;40181;51.560;13.000;2023-05-08T03:54:49;101645.78;;;6.23;84.57
54270;BME280;40181;51.560;13.000;2023-05-08T03:57:18;101639.84;;;6.26;84.44
54270;BME280;40181;51.560;13.000;2023-05-08T03:59:53;101638.03;;;6.07;84.93
54270;BME280;40181;51.560;13.000;2023-05-08T04:02:35;101654.88;;;6.14;85.26
54270;BME280;40181;51.560;13.000;2023-05-08T04:05:12;101654.00;;;6.13;84.93
54270;BME280;40181;51.560;13.000;2023-05-08T04:07:53;101652.84;;;6.08;85.02
54270;BME280;40181;51.560;13.000;2023-05-08T04:10:30;101654.31;;;6.03;85.28
54270;BME280;40181;51.560;13.000;2023-05-08T04:13:06;101649.66;;;5.97;85.43
54270;BME280;40181;51.560;13.000;2023-05-08T04:15:43;101655.78;;;5.98;85.52
54270;BME280;40181;51.560;13.000;2023-05-08T04:18:23;101649.06;;;6.19;84.84
54270;BME280;40181;51.560;13.000;2023-05-08T04:20:56;101653.22;;;6.16;84.60
54270;BME280;40181;51.560;13.000;2023-05-08T04:23:29;101657.16;;;6.07;84.78
54270;BME280;40181;51.560;13.000;2023-05-08T04:25:58;101656.66;;;6.15;84.90
54270;BME280;40181;51.560;13.000;2023-05-08T04:28:29;101657.25;;;6.09;85.27
54270;BME280;40181;51.560;13.000;2023-05-08T04:30:58;101662.69;;;6.14;85.03
54270;BME280;40181;51.560;13.000;2023-05-08T04:33:28;101668.91;;;6.34;84.48
54270;BME280;40181;51.560;13.000;2023-05-08T04:36:00;101664.34;;;6.30;84.16
54270;BME280;40181;51.560;13.000;2023-05-08T04:38:35;101661.94;;;6.34;84.33
54270;BME280;40181;51.560;13.000;2023-05-08T04:41:04;101668.16;;;6.36;84.13
54270;BME280;40181;51.560;13.000;2023-05-08T04:43:34;101670.09;;;6.41;84.38
54270;BME280;40181;51.560;13.000;2023-05-08T04:46:04;101673.97;;;6.49;84.52
54270;BME280;40181;51.560;13.000;2023-05-08T04:48:33;101668.59;;;6.46;84.50
54270;BME280;40181;51.560;13.000;2023-05-08T04:51:03;101674.69;;;6.46;84.62
54270;BME280;40181;51.560;13.000;2023-05-08T04:53:34;101674.34;;;6.39;84.72
54270;BME280;40181;51.560;13.000;2023-05-08T04:56:04;101677.47;;;6.49;84.40
54270;BME280;40181;51.560;13.000;2023-05-08T04:58:33;101674.09;;;6.52;84.94
54270;BME280;40181;51.560;13.000;2023-05-08T05:01:03;101674.44;;;6.40;85.19
54270;BME280;40181;51.560;13.000;2023-05-08T05:03:32;101673.97;;;6.49;85.11
54270;BME280;40181;51.560;13.000;2023-05-08T05:06:01;101679.72;;;6.60;84.86
54270;BME280;40181;51.560;13.000;2023-05-08T05:08:30;101686.81;;;6.62;85.22
54270;BME280;40181;51.560;13.000;2023-05-08T05:11:02;101687.38;;;6.57;85.65
54270;BME280;40181;51.560;13.000;2023-05-08T05:13:31;101688.63;;;6.65;84.78
54270;BME280;40181;51.560;13.000;2023-05-08T05:16:00;101698.94;;;6.62;84.75
54270;BME280;40181;51.560;13.000;2023-05-08T05:18:29;101696.47;;;6.65;84.86
54270;BME280;40181;51.560;13.000;2023-05-08T05:20:58;101696.34;;;6.62;85.43
54270;BME280;40181;51.560;13.000;2023-05-08T05:23:27;101695.00;;;6.70;85.09
54270;BME280;40181;51.560;13.000;2023-05-08T05:25:57;101701.34;;;6.75;85.05
54270;BME280;40181;51.560;13.000;2023-05-08T05:28:28;101693.78;;;6.82;84.96
54270;BME280;40181;51.560;13.000;2023-05-08T05:30:57;101686.31;;;6.89;84.42
54270;BME280;40181;51.560;13.000;2023-05-08T05:33:27;101694.94;;;6.88;85.16
54270;BME280;40181;51.560;13.000;2023-05-08T05:35:56;101692.84;;;6.99;85.21
54270;BME280;40181;51.560;13.000;2023-05-08T05:38:25;101702.88;;;7.10;84.81
54270;BME280;40181;51.560;13.000;2023-05-08T05:40:54;101692.44;;;7.10;84.84
54270;BME280;40181;51.560;13.000;2023-05-08T05:43:23;101698.91;;;7.18;84.72
54270;BME280;40181;51.560;13.000;2023-05-08T05:45:55;101698.88;;;7.16;84.82
54270;BME280;40181;51.560;13.000;2023-05-08T05:48:32;101694.31;;;7.32;83.96
54270;BME280;40181;51.560;13.000;2023-05-08T05:51:01;101692.81;;;7.37;83.59
54270;BME280;40181;51.560;13.000;2023-05-08T05:53:30;101697.53;;;7.46;83.88
54270;BME280;40181;51.560;13.000;2023-05-08T05:55:59;101700.31;;;7.49;83.17
54270;BME280;40181;51.560;13.000;2023-05-08T05:58:28;101694.53;;;7.56;82.63
54270;BME280;40181;51.560;13.000;2023-05-08T06:01:00;101698.97;;;7.59;82.50
54270;BME280;40181;51.560;13.000;2023-05-08T06:03:29;101707.75;;;7.59;81.87
54270;BME280;40181;51.560;13.000;2023-05-08T06:05:58;101699.41;;;7.48;80.98
54270;BME280;40181;51.560;13.000;2023-05-08T06:08:27;101708.81;;;7.65;80.67
54270;BME280;40181;51.560;13.000;2023-05-08T06:10:56;101705.25;;;7.63;80.58
54270;BME280;40181;51.560;13.000;2023-05-08T06:13:26;101712.41;;;7.67;81.10
54270;BME280;40181;51.560;13.000;2023-05-08T06:16:01;101708.53;;;7.78;80.95
54270;BME280;40181;51.560;13.000;2023-05-08T06:18:30;101717.63;;;7.86;79.94
54270;BME280;40181;51.560;13.000;2023-05-08T06:20:59;101711.47;;;7.86;79.44
54270;BME280;40181;51.560;13.000;2023-05-08T06:23:28;101721.47;;;7.95;79.68
54270;BME280;40181;51.560;13.000;2023-05-08T06:25:58;101722.97;;;7.89;79.62
54270;BME280;40181;51.560;13.000;2023-05-08T06:28:27;101713.47;;;7.92;78.75
54270;BME280;40181;51.560;13.000;2023-05-08T06:30:56;101706.00;;;8.01;79.02
54270;BME280;40181;51.560;13.000;2023-05-08T06:33:27;101705.44;;;8.08;78.57
54270;BME280;40181;51.560;13.000;2023-05-08T06:35:56;101706.53;;;8.13;78.30
54270;BME280;40181;51.560;13.000;2023-05-08T06:38:26;101706.81;;;8.20;77.77
54270;BME280;40181;51.560;13.000;2023-05-08T06:40:55;101708.41;;;8.16;77.89
54270;BME280;40181;51.560;13.000;2023-05-08T06:43:24;101698.63;;;8.33;78.16
54270;BME280;40181;51.560;13.000;2023-05-08T06:45:53;101700.72;;;8.42;77.36
54270;BME280;40181;51.560;13.000;2023-05-08T06:48:22;101710.78;;;8.52;76.40
54270;BME280;40181;51.560;13.000;2023-05-08T06:50:56;101715.41;;;8.60;76.55
54270;BME280;40181;51.560;13.000;2023-05-08T06:53:26;101706.28;;;8.71;75.33
54270;BME280;40181;51.560;13.000;2023-05-08T06:55:55;101709.66;;;8.68;75.22
54270;BME280;40181;51.560;13.000;2023-05-08T06:58:24;101712.34;;;8.70;74.37
54270;BME280;40181;51.560;13.000;2023-05-08T07:00:55;101693.72;;;8.85;74.68
54270;BME280;40181;51.560;13.000;2023-05-08T07:03:26;101699.31;;;8.94;74.28
54270;BME280;40181;51.560;13.000;2023-05-08T07:05:58;101706.75;;;9.06;73.63
54270;BME280;40181;51.560;13.000;2023-05-08T07:08:27;101703.56;;;9.15;73.49
54270;BME280;40181;51.560;13.000;2023-05-08T07:10:56;101697.78;;;9.24;73.24
54270;BME280;40181;51.560;13.000;2023-05-08T07:13:25;101705.75;;;9.27;72.04
54270;BME280;40181;51.560;13.000;2023-05-08T07:15:54;101702.22;;;9.26;72.33
54270;BME280;40181;51.560;13.000;2023-05-08T07:18:24;101701.59;;;9.32;71.57
54270;BME280;40181;51.560;13.000;2023-05-08T07:20:53;101709.81;;;9.41;71.47
54270;BME280;40181;51.560;13.000;2023-05-08T07:23:24;101702.59;;;9.60;71.43
54270;BME280;40181;51.560;13.000;2023-05-08T07:25:53;101703.38;;;9.58;71.10
54270;BME280;40181;51.560;13.000;2023-05-08T07:28:23;101698.34;;;9.64;69.63
54270;BME280;40181;51.560;13.000;2023-05-08T07:30:52;101697.03;;;9.77;69.30
54270;BME280;40181;51.560;13.000;2023-05-08T07:33:21;101695.72;;;9.90;69.42
54270;BME280;40181;51.560;13.000;2023-05-08T07:35:50;101687.28;;;9.99;67.74
54270;BME280;40181;51.560;13.000;2023-05-08T07:38:19;101696.88;;;9.98;67.04
54270;BME280;40181;51.560;13.000;2023-05-08T07:40:51;101692.06;;;10.10;66.58
54270;BME280;40181;51.560;13.000;2023-05-08T07:43:21;101699.47;;;10.22;67.60
54270;BME280;40181;51.560;13.000;2023-05-08T07:45:50;101700.00;;;10.40;67.44
54270;BME280;40181;51.560;13.000;2023-05-08T07:48:20;101698.09;;;10.61;67.20
54270;BME280;40181;51.560;13.000;2023-05-08T07:50:49;101695.44;;;10.60;65.82
54270;BME280;40181;51.560;13.000;2023-05-08T07:53:18;101701.00;;;10.71;65.43
54270;BME280;40181;51.560;13.000;2023-05-08T07:55:47;101685.91;;;10.92;65.28
54270;BME280;40181;51.560;13.000;2023-05-08T07:58:18;101684.66;;;10.79;64.45
54270;BME280;40181;51.560;13.000;2023-05-08T08:00:47;101690.38;;;10.95;63.16
54270;BME280;40181;51.560;13.000;2023-05-08T08:03:16;101681.94;;;11.07;62.56
54270;BME280;40181;51.560;13.000;2023-05-08T08:05:46;101682.06;;;11.12;63.54
54270;BME280;40181;51.560;13.000;2023-05-08T08:08:15;101675.66;;;11.32;63.98
54270;BME280;40181;51.560;13.000;2023-05-08T08:10:44;101672.44;;;11.43;64.07
54270;BME280;40181;51.560;13.000;2023-05-08T08:13:16;101675.47;;;11.26;63.09
54270;BME280;40181;51.560;13.000;2023-05-08T08:15:45;101684.06;;;11.51;62.21
54270;BME280;40181;51.560;13.000;2023-05-08T08:18:14;101685.97;;;11.57;62.44
54270;BME280;40181;51.560;13.000;2023-05-08T08:20:43;101673.97;;;11.67;61.11
54270;BME280;40181;51.560;13.000;2023-05-08T08:23:12;101681.50;;;11.86;60.74
54270;BME280;40181;51.560;13.000;2023-05-08T08:25:43;101673.19;;;12.04;60.92
54270;BME280;40181;51.560;13.000;2023-05-08T08:28:12;101677.34;;;12.30;59.42
54270;BME280;40181;51.560;13.000;2023-05-08T08:30:44;101670.41;;;12.34;58.41
54270;BME280;40181;51.560;13.000;2023-05-08T08:33:13;101667.97;;;12.41;58.17
54270;BME280;40181;51.560;13.000;2023-05-08T08:35:42;101671.13;;;12.28;56.91
54270;BME280;40181;51.560;13.000;2023-05-08T08:38:11;101682.00;;;12.40;56.73
54270;BME280;40181;51.560;13.000;2023-05-08T08:40:41;101682.16;;;12.48;56.67
54270;BME280;40181;51.560;13.000;2023-05-08T08:43:10;101663.38;;;13.14;57.20
54270;BME280;40181;51.560;13.000;2023-05-08T08:45:42;101674.69;;;13.08;57.37
54270;BME280;40181;51.560;13.000;2023-05-08T08:48:11;101673.16;;;12.77;55.63
54270;BME280;40181;51.560;13.000;2023-05-08T08:50:42;101665.03;;;13.09;54.34
54270;BME280;40181;51.560;13.000;2023-05-08T08:53:20;101659.94;;;13.18;53.53
54270;BME280;40181;51.560;13.000;2023-05-08T08:55:54;101669.38;;;13.48;53.08
54270;BME280;40181;51.560;13.000;2023-05-08T08:58:31;101655.25;;;13.46;53.45
54270;BME280;40181;51.560;13.000;2023-05-08T09:01:04;101658.25;;;13.65;53.68
54270;BME280;40181;51.560;13.000;2023-05-08T09:03:35;101662.94;;;13.35;51.92
54270;BME280;40181;51.560;13.000;2023-05-08T09:06:05;101666.28;;;13.73;51.81
54270;BME280;40181;51.560;13.000;2023-05-08T09:08:35;101675.25;;;13.81;52.32
54270;BME280;40181;51.560;13.000;2023-05-08T09:11:05;101674.34;;;13.79;52.42
54270;BME280;40181;51.560;13.000;2023-05-08T09:13:34;101665.72;;;13.43;51.21
54270;BME280;40181;51.560;13.000;2023-05-08T09:16:06;101670.91;;;13.85;51.35
54270;BME280;40181;51.560;13.000;2023-05-08T09:18:35;101671.28;;;13.55;50.17
54270;BME280;40181;51.560;13.000;2023-05-08T09:21:05;101668.13;;;13.31;49.79
54270;BME280;40181;51.560;13.000;2023-05-08T09:23:34;101669.56;;;13.59;49.15
54270;BME280;40181;51.560;13.000;2023-05-08T09:26:04;101665.03;;;14.01;50.75
54270;BME280;40181;51.560;13.000;2023-05-08T09:28:33;101666.91;;;14.08;49.36
54270;BME280;40181;51.560;13.000;2023-05-08T09:31:02;101654.97;;;14.34;48.76
54270;BME280;40181;51.560;13.000;2023-05-08T09:33:43;101664.38;;;14.15;48.80
54270;BME280;40181;51.560;13.000;2023-05-08T09:36:24;101656.47;;;14.16;48.84
54270;BME280;40181;51.560;13.000;2023-05-08T09:38:56;101662.00;;;14.33;48.53
54270;BME280;40181;51.560;13.000;2023-05-08T09:41:25;101652.06;;;14.17;47.99
54270;BME280;40181;51.560;13.000;2023-05-08T09:44:01;101647.88;;;14.31;48.32
54270;BME280;40181;51.560;13.000;2023-05-08T09:46:33;101642.38;;;14.76;48.11
54270;BME280;40181;51.560;13.000;2023-05-08T09:49:03;101648.53;;;14.73;48.02
54270;BME280;40181;51.560;13.000;2023-05-08T09:51:32;101649.47;;;14.80;46.84
54270;BME280;40181;51.560;13.000;2023-05-08T09:54:01;101657.03;;;15.20;49.11
54270;BME280;40181;51.560;13.000;2023-05-08T09:56:33;101651.81;;;15.26;47.70
54270;BME280;40181;51.560;13.000;2023-05-08T09:59:04;101644.06;;;15.42;46.59
54270;BME280;40181;51.560;13.000;2023-05-08T10:01:51;101652.94;;;15.47;46.02
54270;BME280;40181;51.560;13.000;2023-05-08T10:04:30;101652.16;;;15.57;46.61
54270;BME280;40181;51.560;13.000;2023-05-08T10:07:00;101645.16;;;15.66;46.78
54270;BME280;40181;51.560;13.000;2023-05-08T10:09:29;101657.84;;;15.95;45.37
54270;BME280;40181;51.560;13.000;2023-05-08T10:11:58;101641.38;;;15.40;44.46
54270;BME280;40181;51.560;13.000;2023-05-08T10:14:30;101638.28;;;15.85;44.72
54270;BME280;40181;51.560;13.000;2023-05-08T10:17:06;101632.34;;;16.09;45.30
54270;BME280;40181;51.560;13.000;2023-05-08T10:19:40;101650.97;;;16.20;45.05
54270;BME280;40181;51.560;13.000;2023-05-08T10:22:14;101639.59;;;16.37;43.34
54270;BME280;40181;51.560;13.000;2023-05-08T10:24:44;101630.88;;;16.59;42.90
54270;BME280;40181;51.560;13.000;2023-05-08T10:27:16;101649.16;;;16.14;42.45
54270;BME280;40181;51.560;13.000;2023-05-08T10:29:53;101627.47;;;16.79;44.47
54270;BME280;40181;51.560;13.000;2023-05-08T10:32:27;101639.78;;;16.68;43.17
54270;BME280;40181;51.560;13.000;2023-05-08T10:35:02;101629.19;;;16.72;43.40
54270;BME280;40181;51.560;13.000;2023-05-08T10:37:37;101622.22;;;16.93;42.93
54270;BME280;40181;51.560;13.000;2023-05-08T10:40:07;101628.16;;;16.45;42.59
54270;BME280;40181;51.560;13.000;2023-05-08T10:42:40;101618.63;;;16.86;44.71
54270;BME280;40181;51.560;13.000;2023-05-08T10:45:10;101619.56;;;16.93;42.42
54270;BME280;40181;51.560;13.000;2023-05-08T10:47:57;101630.97;;;16.70;40.52
54270;BME280;40181;51.560;13.000;2023-05-08T10:50:35;101615.09;;;16.83;40.11
54270;BME280;40181;51.560;13.000;2023-05-08T10:53:13;101626.47;;;16.57;42.21
54270;BME280;40181;51.560;13.000;2023-05-08T10:55:47;101619.41;;;16.62;41.52
54270;BME280;40181;51.560;13.000;2023-05-08T10:58:28;101617.66;;;16.69;40.91
54270;BME280;40181;51.560;13.000;2023-05-08T11:01:16;101615.94;;;16.71;40.18
54270;BME280;40181;51.560;13.000;2023-05-08T11:03:49;101610.63;;;16.72;40.54
54270;BME280;40181;51.560;13.000;2023-05-08T11:06:46;101623.94;;;16.80;40.49
54270;BME280;40181;51.560;13.000;2023-05-08T11:09:21;101607.91;;;16.63;40.48
54270;BME280;40181;51.560;13.000;2023-05-08T11:12:02;101608.88;;;16.73;39.80
54270;BME280;40181;51.560;13.000;2023-05-08T11:14:35;101619.53;;;16.84;40.30
54270;BME280;40181;51.560;13.000;2023-05-08T11:17:07;101603.50;;;16.59;40.68
54270;BME280;40181;51.560;13.000;2023-05-08T11:19:54;101610.84;;;17.25;42.83
54270;BME280;40181;51.560;13.000;2023-05-08T11:22:26;101603.63;;;16.90;39.53
54270;BME280;40181;51.560;13.000;2023-05-08T11:25:08;101603.81;;;17.40;39.49
54270;BME280;40181;51.560;13.000;2023-05-08T11:27:39;101610.03;;;17.90;40.46
54270;BME280;40181;51.560;13.000;2023-05-08T11:30:34;101613.56;;;17.83;39.07
54270;BME280;40181;51.560;13.000;2023-05-08T11:33:12;101602.94;;;17.66;37.34
54270;BME280;40181;51.560;13.000;2023-05-08T11:35:50;101602.03;;;17.37;37.92
54270;BME280;40181;51.560;13.000;2023-05-08T11:38:31;101604.72;;;17.81;40.22
54270;BME280;40181;51.560;13.000;2023-05-08T11:41:04;101613.53;;;18.47;38.60
54270;BME280;40181;51.560;13.000;2023-05-08T11:43:49;101602.03;;;17.82;36.89
54270;BME280;40181;51.560;13.000;2023-05-08T11:46:35;101595.84;;;18.22;36.93
54270;BME280;40181;51.560;13.000;2023-05-08T11:49:09;101598.50;;;17.96;37.40
54270;BME280;40181;51.560;13.000;2023-05-08T11:51:44;101601.16;;;17.73;36.45
54270;BME280;40181;51.560;13.000;2023-05-08T11:54:15;101601.16;;;17.90;37.29
54270;BME280;40181;51.560;13.000;2023-05-08T11:56:46;101589.66;;;17.78;36.63
54270;BME280;40181;51.560;13.000;2023-05-08T11:59:16;101595.72;;;18.67;39.80
54270;BME280;40181;51.560;13.000;2023-05-08T12:01:47;101586.00;;;18.54;37.79
54270;BME280;40181;51.560;13.000;2023-05-08T12:04:17;101583.38;;;18.46;37.18
54270;BME280;40181;51.560;13.000;2023-05-08T12:06:49;101592.31;;;18.27;35.73
54270;BME280;40181;51.560;13.000;2023-05-08T12:09:18;101586.97;;;18.37;36.54
54270;BME280;40181;51.560;13.000;2023-05-08T12:11:55;101594.91;;;18.44;35.60
54270;BME280;40181;51.560;13.000;2023-05-08T12:14:25;101590.34;;;18.82;37.12
54270;BME280;40181;51.560;13.000;2023-05-08T12:16:54;101580.53;;;18.94;36.22
54270;BME280;40181;51.560;13.000;2023-05-08T12:19:23;101572.66;;;18.66;35.19
54270;BME280;40181;51.560;13.000;2023-05-08T12:21:55;101593.97;;;18.66;33.85
54270;BME280;40181;51.560;13.000;2023-05-08T12:24:24;101571.63;;;19.06;35.19
54270;BME280;40181;51.560;13.000;2023-05-08T12:26:54;101567.31;;;18.68;34.26
54270;BME280;40181;51.560;13.000;2023-05-08T12:29:23;101575.34;;;18.62;34.99
54270;BME280;40181;51.560;13.000;2023-05-08T12:31:52;101573.44;;;18.86;35.39
54270;BME280;40181;51.560;13.000;2023-05-08T12:34:22;101577.63;;;19.38;37.61
54270;BME280;40181;51.560;13.000;2023-05-08T12:37:03;101580.38;;;19.23;36.09
54270;BME280;40181;51.560;13.000;2023-05-08T12:39:35;101566.84;;;19.58;35.81
54270;BME280;40181;51.560;13.000;2023-05-08T12:42:04;101573.34;;;19.18;35.28
54270;BME280;40181;51.560;13.000;2023-05-08T12:44:33;101581.41;;;18.98;35.34
54270;BME280;40181;51.560;13.000;2023-05-08T12:47:03;101568.78;;;19.36;33.93
54270;BME280;40181;51.560;13.000;2023-05-08T12:49:33;101569.72;;;19.29;35.23
54270;BME280;40181;51.560;13.000;2023-05-08T12:52:06;101566.69;;;19.75;35.36
54270;BME280;40181;51.560;13.000;2023-05-08T12:54:40;101571.59;;;19.11;34.41
54270;BME280;40181;51.560;13.000;2023-05-08T12:57:14;101549.97;;;19.55;34.27
54270;BME280;40181;51.560;13.000;2023-05-08T12:59:47;101551.78;;;19.51;34.88
54270;BME280;40181;51.560;13.000;2023-05-08T13:02:17;101553.34;;;19.75;32.98
54270;BME280;40181;51.560;13.000;2023-05-08T13:04:52;101550.41;;;18.80;33.44
54270;BME280;40181;51.560;13.000;2023-05-08T13:07:30;101541.94;;;19.56;35.05
54270;BME280;40181;51.560;13.000;2023-05-08T13:10:00;101552.03;;;19.18;32.75
54270;BME280;40181;51.560;13.000;2023-05-08T13:12:30;101548.41;;;19.26;34.73
54270;BME280;40181;51.560;13.000;2023-05-08T13:14:59;101540.41;;;19.27;34.38